Clovis, CA (93619)

7:54 AM PST on January 28, 2015 (GMT -0800)
APRSWXNET Clovis CA US | Change Station
CLOSE
Current Station
Personal Weather Station
Location: Clovis, CA
Elevation: 416 ft
Nearby Weather Stations
Active Advisory: Dense Fog Advisory

Elev 416 ft 36.85 °N, 119.63 °W | Updated 51 minutes ago

Fog
Fog
40 °F
Feels Like 40 °F
N
0
Wind Variable Wind from West
Gusts 1.0 mph

Today
High -- | Low -- °F
--% Chance of Precip.
Yesterday
High -- | Low -- °F
Precip. -- in
7:03 AM 5:19 PM
Waxing Gibbous, 65% visible
Pressure 30.25 in
Visibility 0.1 miles
Clouds
Windchill 40 °F
Dew Point 37 °F
Humidity 90%
Rainfall 0.13 in
Snow Depth Not available.
UV Not available.
Pollen 4.70 out of 12
Air Quality Not available.
Flu Activity Not available.
METAR KFAT 281453Z 00000KT 1/16SM R29R/2000V4500FT FG VV001 07/07 A3025 RMK AO2 TWR VIS 1/8 SLP242 T00720072 58003

More Conditions Fewer Conditions

Pressure 30.25 in
Visibility 0.1 miles
Clouds
Windchill 40 °F
Dew Point 37 °F
Humidity 90%
Rainfall 0.13 in
Snow Depth Not available.
UV Not available.
Pollen 4.70 out of 12
Air Quality Not available.
Flu Activity Not available.
METAR KFAT 281453Z 00000KT 1/16SM R29R/2000V4500FT FG VV001 07/07 A3025 RMK AO2 TWR VIS 1/8 SLP242 T00720072 58003

More Conditions Fewer Conditions

10-Day Weather Forecast

Almanac

Astronomy

Jan. 28, 2015 Rise Set
Actual Time
Civil Twilight
Nautical Twilight
Astronomical Twilight
Moon
Length of Visible Light
Length of Day
Tomorrow will be .
, % of the Moon is Illuminated

Today's Extremes

State Highs State Lows

Community

WunderPhotos

Upload Photos

1,791,177 photos uploaded!

WunderBlogs® & News

Nearby

Air Quality

  Air Quality AQ Index Pollutant
Not available.

Snow Depth

Station Depth Elevation

Earthquake Activity

City Distance Mag. Time & Date
Minimum magnitude displayed is 2.5.

Coastal Water Temperatures

Place Temperature

Nearby Weather Stations